Puli — TCSN7 — position and weather

sailwx.info

Track history (hours):
 
Tides and Currents Weather Stations Pressure Air Temp Water Temp Dewpoint Dewpoint Depression Visibility Wind Speed Wind Dir Waves Ship Positions

Puli

Last reported at 2015-May-07 07:33 UTC. Time now 2015-May-07 07:35 UTC.
Position N 35°52' E 014°47'.

Length 148 m; draft 8 m.

Type: Tanker. MMSI: 271000927.

Date/timePositionNaut miles runAvg speedWind from/ knotsBaromVisibWave heightAir tempDewpointWater temp
2015-May-07 07:33N 35°52' E 014°47'0 0.1
2015-May-07 06:33N 35°52' E 014°47'8 8.2
2015-May-07 05:33N 35°57' E 014°39'1211.6
2015-May-07 04:33N 36°04' E 014°27'1111.5
2015-May-07 03:33N 36°11' E 014°16'1111.4
2015-May-07 02:33N 36°15' E 014°03'1111.3
2015-May-07 01:33N 36°20' E 013°50'1111.3
2015-May-07 00:33N 36°24' E 013°37'1111.2
2015-May-06 23:33N 36°29' E 013°25'1111.0
2015-May-06 22:33N 36°35' E 013°13'1110.8
2015-May-06 21:33N 36°40' E 013°02'1111.1
2015-May-06 20:33N 36°45' E 012°49'1111.1
2015-May-06 19:33N 36°50' E 012°36'1111.2
2015-May-06 18:33N 36°54' E 012°24'8111.6
2015-May-06 11:33N 37°34' E 010°55'1212.1
2015-May-06 10:32N 37°42' E 010°44'1212.1
2015-May-06 09:33N 37°51' E 010°34'2410.5
2015-May-06 07:17N 38°09' E 010°14'6 8.6
2015-May-06 06:33N 38°14' E 010°08'9 8.5
2015-May-06 05:33N 38°19' E 010°00'8 8.2
2015-May-06 04:33N 38°25' E 009°53'8 7.8
2015-May-06 03:33N 38°31' E 009°46'8 7.9
2015-May-06 02:33N 38°36' E 009°39'8 8.3
2015-May-06 01:33N 38°42' E 009°31'8 8.4
2015-May-06 00:33N 38°48' E 009°23'9 8.5
2015-May-05 23:33N 38°54' E 009°16'8 8.4
2015-May-05 22:33N 39°00' E 009°09'6 6.1
2015-May-05 21:33N 39°05' E 009°04'2 1.5
2015-May-05 20:31N 39°05' E 009°02'0 0.0
2015-May-05 19:31N 39°05' E 009°02'0 0.0
2015-May-05 18:34N 39°05' E 009°02'0 0.0
2015-May-05 17:33N 39°05' E 009°02'0 0.0
2015-May-05 16:33N 39°05' E 009°02'0 0.0
2015-May-05 15:32N 39°05' E 009°02'0 0.0
2015-May-05 14:32N 39°05' E 009°02'0 0.0
2015-May-05 13:31N 39°05' E 009°02'0 0.0
2015-May-05 12:31N 39°05' E 009°02'0 0.0
2015-May-05 11:34N 39°05' E 009°02'0 0.0
2015-May-05 10:33N 39°05' E 009°02'0 0.0
2015-May-05 09:33N 39°05' E 009°02'0 0.0
2015-May-05 08:32N 39°05' E 009°02'0 0.0
2015-May-05 07:32N 39°05' E 009°02'0 0.0
2015-May-05 06:31N 39°05' E 009°02'0 0.0
2015-May-05 05:31N 39°05' E 009°02'0 0.0
2015-May-05 04:33N 39°05' E 009°02'0 0.0
2015-May-05 03:33N 39°05' E 009°02'0 0.0
2015-May-05 02:32N 39°05' E 009°02'0 0.0
2015-May-05 01:32N 39°05' E 009°02'0 0.0
2015-May-05 00:31N 39°05' E 009°02'0 0.0
2015-May-04 23:31N 39°05' E 009°02'0 0.0
2015-May-04 22:31N 39°05' E 009°02'0 0.0
2015-May-04 21:33N 39°05' E 009°02'0 0.0
2015-May-04 20:33N 39°05' E 009°02'0 0.0
2015-May-04 19:32N 39°05' E 009°02'0 0.0
2015-May-04 18:33N 39°05' E 009°02'3 2.9
2015-May-04 17:33N 39°03' E 009°05'0 0.1
2015-May-04 16:32N 39°03' E 009°05'0 0.0
2015-May-04 15:31N 39°03' E 009°05'0 0.0
2015-May-04 14:31N 39°03' E 009°05'0 0.4
2015-May-04 13:33N 39°03' E 009°05'1110.8
2015-May-04 12:33N 38°53' E 008°59'1511.8
2015-May-04 11:18N 38°41' E 008°48'1111.7
2015-May-04 10:24N 38°38' E 008°35'22511.8
2015-May-03 15:24N 37°40' E 003°59'1012.4
2015-May-03 14:33N 37°37' E 003°47'1312.7
2015-May-03 13:34N 37°34' E 003°31'1312.6
2015-May-03 12:33N 37°31' E 003°16'1312.6
2015-May-03 11:34N 37°28' E 003°00'1312.5
2015-May-03 10:33N 37°25' E 002°45'1212.4
2015-May-03 09:33N 37°22' E 002°30'1212.5
2015-May-03 08:34N 37°18' E 002°15'1312.6
2015-May-03 07:33N 37°15' E 001°60'1412.5
2015-May-03 06:27N 37°11' E 001°43'1112.7
2015-May-03 05:33N 37°09' E 001°29'1312.6
2015-May-03 04:33N 37°05' E 001°13'1312.6
2015-May-03 03:32N 37°02' E 000°58'1412.5
2015-May-03 02:23N 36°59' E 000°41'1612.4
2015-May-03 01:08N 36°55' E 000°22'1012.3
2015-May-03 00:20N 36°53' E 000°10'2212.2
2015-May-02 22:33N 36°47' W 000°17'1212.0
2015-May-02 21:31N 36°44' W 000°31'1212.3
2015-May-02 20:31N 36°40' W 000°46'2512.0
2015-May-02 18:28N 36°33' W 001°16'5112.6
2015-May-02 14:25N 36°20' W 002°17'1112.5
2015-May-02 13:34N 36°19' W 002°30'1212.4
2015-May-02 12:33N 36°17' W 002°46'1612.3
2015-May-02 11:17N 36°15' W 003°05'10312.7
2015-May-02 03:08N 36°01' W 005°11'915.0
2015-May-02 02:34N 35°59' W 005°22'8812.5
2015-May-01 19:30N 36°02' W 007°11'1212.8
2015-May-01 18:33N 36°08' W 007°24'9 9.1
2015-May-01 17:33N 36°17' W 007°23'1212.3
2015-May-01 16:33N 36°27' W 007°15'1212.2
2015-May-01 15:33N 36°38' W 007°06'33 4.8
2015-May-01 08:33N 37°10' W 006°54'0 0.0
2015-May-01 07:33N 37°10' W 006°54'0 0.0
2015-May-01 06:31N 37°10' W 006°54'0 0.0
2015-May-01 05:33N 37°10' W 006°54'0 0.0
2015-May-01 04:25N 37°10' W 006°54'0 0.0
2015-May-01 03:33N 37°10' W 006°54'0 0.0
2015-May-01 02:33N 37°10' W 006°54'0 0.0
2015-May-01 01:27N 37°10' W 006°54'0 0.0
2015-May-01 00:33N 37°10' W 006°54'0 0.0
2015-Apr-30 23:33N 37°10' W 006°54'194 4.4
2015-Apr-29 03:14N 36°19' W 003°00'910.8
2015-Apr-29 02:25N 36°21' W 002°50'1010.9
2015-Apr-29 01:32N 36°23' W 002°38'1211.0
2015-Apr-29 00:26N 36°24' W 002°23'1011.1
2015-Apr-28 23:33N 36°26' W 002°11'1111.4
2015-Apr-28 22:34N 36°33' W 002°00'1111.1
2015-Apr-28 21:33N 36°41' W 001°50'1411.3
2015-Apr-28 20:18N 36°50' W 001°37'2011.6
2015-Apr-28 18:33N 37°04' W 001°17'1111.3
2015-Apr-28 17:33N 37°11' W 001°07'1111.5
2015-Apr-28 16:33N 37°19' W 000°56'1111.0
2015-Apr-28 15:33N 37°26' W 000°45'1111.1
2015-Apr-28 14:33N 37°33' W 000°35'1110.9
2015-Apr-28 13:33N 37°43' W 000°28'1111.1
2015-Apr-28 12:34N 37°52' W 000°21'1111.2
2015-Apr-28 11:33N 38°01' W 000°12'85 8.5
2015-Apr-28 01:33N 39°26' W 000°18'1 1.2
2015-Apr-28 00:32N 39°27' W 000°19'0 0.0
2015-Apr-27 23:31N 39°27' W 000°19'0 0.0
2015-Apr-27 22:31N 39°27' W 000°19'0 0.0
2015-Apr-27 21:33N 39°27' W 000°19'0 0.0
2015-Apr-27 20:21N 39°27' W 000°19'0 0.0
2015-Apr-27 19:32N 39°27' W 000°19'0 0.0
2015-Apr-27 18:32N 39°27' W 000°19'0 0.0
2015-Apr-27 17:26N 39°27' W 000°19'0 0.0
2015-Apr-27 16:31N 39°27' W 000°19'0 0.4
2015-Apr-27 15:34N 39°27' W 000°19'3 3.4
2015-Apr-27 14:33N 39°26' W 000°15'6 5.8
2015-Apr-27 13:33N 39°29' W 000°08'6010.9
2015-Apr-27 08:06N 39°53' E 001°03'4 7.3
2015-Apr-27 07:33N 39°56' E 001°06'  
Track history (hours):
 
Tides and Currents Weather Stations Pressure Air Temp Water Temp Dewpoint Dewpoint Depression Visibility Wind Speed Wind Dir Waves Ship Positions

Puli

Last reported at 2015-May-07 07:33 UTC. Time now 2015-May-07 07:35 UTC.
Position N 35°52' E 014°47'.

Length 148 m; draft 8 m.

Type: Tanker. MMSI: 271000927.

Date/timePositionNaut miles runAvg speedWind from/ knotsBaromVisibWave heightAir tempDewpointWater temp
2015-May-07 07:33N 35°52' E 014°47'0 0.1
2015-May-07 06:33N 35°52' E 014°47'8 8.2
2015-May-07 05:33N 35°57' E 014°39'1211.6
2015-May-07 04:33N 36°04' E 014°27'1111.5
2015-May-07 03:33N 36°11' E 014°16'1111.4
2015-May-07 02:33N 36°15' E 014°03'1111.3
2015-May-07 01:33N 36°20' E 013°50'1111.3
2015-May-07 00:33N 36°24' E 013°37'1111.2
2015-May-06 23:33N 36°29' E 013°25'1111.0
2015-May-06 22:33N 36°35' E 013°13'1110.8
2015-May-06 21:33N 36°40' E 013°02'1111.1
2015-May-06 20:33N 36°45' E 012°49'1111.1
2015-May-06 19:33N 36°50' E 012°36'1111.2
2015-May-06 18:33N 36°54' E 012°24'8111.6
2015-May-06 11:33N 37°34' E 010°55'1212.1
2015-May-06 10:32N 37°42' E 010°44'1212.1
2015-May-06 09:33N 37°51' E 010°34'2410.5
2015-May-06 07:17N 38°09' E 010°14'6 8.6
2015-May-06 06:33N 38°14' E 010°08'9 8.5
2015-May-06 05:33N 38°19' E 010°00'8 8.2
2015-May-06 04:33N 38°25' E 009°53'8 7.8
2015-May-06 03:33N 38°31' E 009°46'8 7.9
2015-May-06 02:33N 38°36' E 009°39'8 8.3
2015-May-06 01:33N 38°42' E 009°31'8 8.4
2015-May-06 00:33N 38°48' E 009°23'9 8.5
2015-May-05 23:33N 38°54' E 009°16'8 8.4
2015-May-05 22:33N 39°00' E 009°09'6 6.1
2015-May-05 21:33N 39°05' E 009°04'2 1.5
2015-May-05 20:31N 39°05' E 009°02'0 0.0
2015-May-05 19:31N 39°05' E 009°02'0 0.0
2015-May-05 18:34N 39°05' E 009°02'0 0.0
2015-May-05 17:33N 39°05' E 009°02'0 0.0
2015-May-05 16:33N 39°05' E 009°02'0 0.0
2015-May-05 15:32N 39°05' E 009°02'0 0.0
2015-May-05 14:32N 39°05' E 009°02'0 0.0
2015-May-05 13:31N 39°05' E 009°02'0 0.0
2015-May-05 12:31N 39°05' E 009°02'0 0.0
2015-May-05 11:34N 39°05' E 009°02'0 0.0
2015-May-05 10:33N 39°05' E 009°02'0 0.0
2015-May-05 09:33N 39°05' E 009°02'0 0.0
2015-May-05 08:32N 39°05' E 009°02'0 0.0
2015-May-05 07:32N 39°05' E 009°02'0 0.0
2015-May-05 06:31N 39°05' E 009°02'0 0.0
2015-May-05 05:31N 39°05' E 009°02'0 0.0
2015-May-05 04:33N 39°05' E 009°02'0 0.0
2015-May-05 03:33N 39°05' E 009°02'0 0.0
2015-May-05 02:32N 39°05' E 009°02'0 0.0
2015-May-05 01:32N 39°05' E 009°02'0 0.0
2015-May-05 00:31N 39°05' E 009°02'0 0.0
2015-May-04 23:31N 39°05' E 009°02'0 0.0
2015-May-04 22:31N 39°05' E 009°02'0 0.0
2015-May-04 21:33N 39°05' E 009°02'0 0.0
2015-May-04 20:33N 39°05' E 009°02'0 0.0
2015-May-04 19:32N 39°05' E 009°02'0 0.0
2015-May-04 18:33N 39°05' E 009°02'3 2.9
2015-May-04 17:33N 39°03' E 009°05'0 0.1
2015-May-04 16:32N 39°03' E 009°05'0 0.0
2015-May-04 15:31N 39°03' E 009°05'0 0.0
2015-May-04 14:31N 39°03' E 009°05'0 0.4
2015-May-04 13:33N 39°03' E 009°05'1110.8
2015-May-04 12:33N 38°53' E 008°59'1511.8
2015-May-04 11:18N 38°41' E 008°48'1111.7
2015-May-04 10:24N 38°38' E 008°35'22511.8
2015-May-03 15:24N 37°40' E 003°59'1012.4
2015-May-03 14:33N 37°37' E 003°47'1312.7
2015-May-03 13:34N 37°34' E 003°31'1312.6
2015-May-03 12:33N 37°31' E 003°16'1312.6
2015-May-03 11:34N 37°28' E 003°00'1312.5
2015-May-03 10:33N 37°25' E 002°45'1212.4
2015-May-03 09:33N 37°22' E 002°30'1212.5
2015-May-03 08:34N 37°18' E 002°15'1312.6
2015-May-03 07:33N 37°15' E 001°60'1412.5
2015-May-03 06:27N 37°11' E 001°43'1112.7
2015-May-03 05:33N 37°09' E 001°29'1312.6
2015-May-03 04:33N 37°05' E 001°13'1312.6
2015-May-03 03:32N 37°02' E 000°58'1412.5
2015-May-03 02:23N 36°59' E 000°41'1612.4
2015-May-03 01:08N 36°55' E 000°22'1012.3
2015-May-03 00:20N 36°53' E 000°10'2212.2
2015-May-02 22:33N 36°47' W 000°17'1212.0
2015-May-02 21:31N 36°44' W 000°31'1212.3
2015-May-02 20:31N 36°40' W 000°46'2512.0
2015-May-02 18:28N 36°33' W 001°16'5112.6
2015-May-02 14:25N 36°20' W 002°17'1112.5
2015-May-02 13:34N 36°19' W 002°30'1212.4
2015-May-02 12:33N 36°17' W 002°46'1612.3
2015-May-02 11:17N 36°15' W 003°05'10312.7
2015-May-02 03:08N 36°01' W 005°11'915.0
2015-May-02 02:34N 35°59' W 005°22'8812.5
2015-May-01 19:30N 36°02' W 007°11'1212.8
2015-May-01 18:33N 36°08' W 007°24'9 9.1
2015-May-01 17:33N 36°17' W 007°23'1212.3
2015-May-01 16:33N 36°27' W 007°15'1212.2
2015-May-01 15:33N 36°38' W 007°06'33 4.8
2015-May-01 08:33N 37°10' W 006°54'0 0.0
2015-May-01 07:33N 37°10' W 006°54'0 0.0
2015-May-01 06:31N 37°10' W 006°54'0 0.0
2015-May-01 05:33N 37°10' W 006°54'0 0.0
2015-May-01 04:25N 37°10' W 006°54'0 0.0
2015-May-01 03:33N 37°10' W 006°54'0 0.0
2015-May-01 02:33N 37°10' W 006°54'0 0.0
2015-May-01 01:27N 37°10' W 006°54'0 0.0
2015-May-01 00:33N 37°10' W 006°54'0 0.0
2015-Apr-30 23:33N 37°10' W 006°54'194 4.4
2015-Apr-29 03:14N 36°19' W 003°00'910.8
2015-Apr-29 02:25N 36°21' W 002°50'1010.9
2015-Apr-29 01:32N 36°23' W 002°38'1211.0
2015-Apr-29 00:26N 36°24' W 002°23'1011.1
2015-Apr-28 23:33N 36°26' W 002°11'1111.4
2015-Apr-28 22:34N 36°33' W 002°00'1111.1
2015-Apr-28 21:33N 36°41' W 001°50'1411.3
2015-Apr-28 20:18N 36°50' W 001°37'2011.6
2015-Apr-28 18:33N 37°04' W 001°17'1111.3
2015-Apr-28 17:33N 37°11' W 001°07'1111.5
2015-Apr-28 16:33N 37°19' W 000°56'1111.0
2015-Apr-28 15:33N 37°26' W 000°45'1111.1
2015-Apr-28 14:33N 37°33' W 000°35'1110.9
2015-Apr-28 13:33N 37°43' W 000°28'1111.1
2015-Apr-28 12:34N 37°52' W 000°21'1111.2
2015-Apr-28 11:33N 38°01' W 000°12'85 8.5
2015-Apr-28 01:33N 39°26' W 000°18'1 1.2
2015-Apr-28 00:32N 39°27' W 000°19'0 0.0
2015-Apr-27 23:31N 39°27' W 000°19'0 0.0
2015-Apr-27 22:31N 39°27' W 000°19'0 0.0
2015-Apr-27 21:33N 39°27' W 000°19'0 0.0
2015-Apr-27 20:21N 39°27' W 000°19'0 0.0
2015-Apr-27 19:32N 39°27' W 000°19'0 0.0
2015-Apr-27 18:32N 39°27' W 000°19'0 0.0
2015-Apr-27 17:26N 39°27' W 000°19'0 0.0
2015-Apr-27 16:31N 39°27' W 000°19'0 0.4
2015-Apr-27 15:34N 39°27' W 000°19'3 3.4
2015-Apr-27 14:33N 39°26' W 000°15'6 5.8
2015-Apr-27 13:33N 39°29' W 000°08'6010.9
2015-Apr-27 08:06N 39°53' E 001°03'4 7.3
2015-Apr-27 07:33N 39°56' E 001°06'  

Dump ship's entire track history